sensor_id;sensor_type;location;lat;lon;timestamp;temperature;humidity
69543;SHT31;56762;49.494;11.768;2022-11-14T00:00:23;4.30;87.02
69543;SHT31;56762;49.494;11.768;2022-11-14T00:02:51;4.30;87.02
69543;SHT31;56762;49.494;11.768;2022-11-14T00:05:21;4.27;87.00
69543;SHT31;56762;49.494;11.768;2022-11-14T00:07:48;4.27;87.41
69543;SHT31;56762;49.494;11.768;2022-11-14T00:10:16;4.30;86.98
69543;SHT31;56762;49.494;11.768;2022-11-14T00:12:44;4.27;86.76
69543;SHT31;56762;49.494;11.768;2022-11-14T00:15:12;4.27;86.63
69543;SHT31;56762;49.494;11.768;2022-11-14T00:17:40;4.24;86.96
69543;SHT31;56762;49.494;11.768;2022-11-14T00:20:11;4.25;86.71
69543;SHT31;56762;49.494;11.768;2022-11-14T00:22:40;4.23;86.75
69543;SHT31;56762;49.494;11.768;2022-11-14T00:25:08;4.23;86.36
69543;SHT31;56762;49.494;11.768;2022-11-14T00:27:36;4.24;86.76
69543;SHT31;56762;49.494;11.768;2022-11-14T00:30:04;4.20;87.55
69543;SHT31;56762;49.494;11.768;2022-11-14T00:32:32;4.14;87.14
69543;SHT31;56762;49.494;11.768;2022-11-14T00:35:00;4.16;87.12
69543;SHT31;56762;49.494;11.768;2022-11-14T00:37:28;4.17;87.13
69543;SHT31;56762;49.494;11.768;2022-11-14T00:39:57;4.17;86.84
69543;SHT31;56762;49.494;11.768;2022-11-14T00:42:24;4.16;86.63
69543;SHT31;56762;49.494;11.768;2022-11-14T00:44:52;4.14;86.58
69543;SHT31;56762;49.494;11.768;2022-11-14T00:47:20;4.13;86.72
69543;SHT31;56762;49.494;11.768;2022-11-14T00:49:48;4.14;86.49
69543;SHT31;56762;49.494;11.768;2022-11-14T00:52:15;4.11;86.84
69543;SHT31;56762;49.494;11.768;2022-11-14T00:54:43;4.13;87.23
69543;SHT31;56762;49.494;11.768;2022-11-14T00:57:12;4.13;86.90
69543;SHT31;56762;49.494;11.768;2022-11-14T00:59:40;4.16;86.89
69543;SHT31;56762;49.494;11.768;2022-11-14T01:02:08;4.13;85.86
69543;SHT31;56762;49.494;11.768;2022-11-14T01:04:35;4.09;86.02
69543;SHT31;56762;49.494;11.768;2022-11-14T01:07:03;4.06;86.47
69543;SHT31;56762;49.494;11.768;2022-11-14T01:09:31;4.03;86.48
69543;SHT31;56762;49.494;11.768;2022-11-14T01:11:58;3.96;86.48
69543;SHT31;56762;49.494;11.768;2022-11-14T01:14:28;3.92;86.31
69543;SHT31;56762;49.494;11.768;2022-11-14T01:16:55;3.92;85.92
69543;SHT31;56762;49.494;11.768;2022-11-14T01:19:23;3.89;85.96
69543;SHT31;56762;49.494;11.768;2022-11-14T01:21:51;3.87;85.67
69543;SHT31;56762;49.494;11.768;2022-11-14T01:24:19;3.86;85.81
69543;SHT31;56762;49.494;11.768;2022-11-14T01:26:46;3.76;85.99
69543;SHT31;56762;49.494;11.768;2022-11-14T01:29:14;3.72;85.96
69543;SHT31;56762;49.494;11.768;2022-11-14T01:31:43;3.76;85.87
69543;SHT31;56762;49.494;11.768;2022-11-14T01:34:11;3.72;85.89
69543;SHT31;56762;49.494;11.768;2022-11-14T01:36:39;3.69;86.72
69543;SHT31;56762;49.494;11.768;2022-11-14T01:39:06;3.65;86.87
69543;SHT31;56762;49.494;11.768;2022-11-14T01:41:34;3.63;86.26
69543;SHT31;56762;49.494;11.768;2022-11-14T01:44:06;3.59;85.21
69543;SHT31;56762;49.494;11.768;2022-11-14T01:46:41;3.55;85.85
69543;SHT31;56762;49.494;11.768;2022-11-14T01:49:14;3.52;85.97
69543;SHT31;56762;49.494;11.768;2022-11-14T01:51:46;3.43;85.80
69543;SHT31;56762;49.494;11.768;2022-11-14T01:54:19;3.46;85.62
69543;SHT31;56762;49.494;11.768;2022-11-14T01:56:54;3.46;84.50
69543;SHT31;56762;49.494;11.768;2022-11-14T01:59:26;3.41;84.40
69543;SHT31;56762;49.494;11.768;2022-11-14T02:01:56;3.34;84.66
69543;SHT31;56762;49.494;11.768;2022-11-14T02:04:32;3.34;84.57
69543;SHT31;56762;49.494;11.768;2022-11-14T02:07:02;3.31;84.80
69543;SHT31;56762;49.494;11.768;2022-11-14T02:09:34;3.28;85.02
69543;SHT31;56762;49.494;11.768;2022-11-14T02:12:05;3.27;85.70
69543;SHT31;56762;49.494;11.768;2022-11-14T02:14:35;3.22;86.15
69543;SHT31;56762;49.494;11.768;2022-11-14T02:17:03;3.25;85.92
69543;SHT31;56762;49.494;11.768;2022-11-14T02:19:54;3.24;85.82
69543;SHT31;56762;49.494;11.768;2022-11-14T02:22:31;3.22;85.94
69543;SHT31;56762;49.494;11.768;2022-11-14T02:24:59;3.18;86.05
69543;SHT31;56762;49.494;11.768;2022-11-14T02:27:26;3.21;86.44
69543;SHT31;56762;49.494;11.768;2022-11-14T02:30:02;3.20;86.43
69543;SHT31;56762;49.494;11.768;2022-11-14T02:32:30;3.15;85.80
69543;SHT31;56762;49.494;11.768;2022-11-14T02:35:18;3.18;84.88
69543;SHT31;56762;49.494;11.768;2022-11-14T02:37:48;3.11;84.55
69543;SHT31;56762;49.494;11.768;2022-11-14T02:40:27;3.08;85.41
69543;SHT31;56762;49.494;11.768;2022-11-14T02:42:56;3.05;85.65
69543;SHT31;56762;49.494;11.768;2022-11-14T02:45:23;3.03;85.93
69543;SHT31;56762;49.494;11.768;2022-11-14T02:47:51;2.99;85.81
69543;SHT31;56762;49.494;11.768;2022-11-14T02:50:19;2.97;86.27
69543;SHT31;56762;49.494;11.768;2022-11-14T02:52:48;2.96;85.94
69543;SHT31;56762;49.494;11.768;2022-11-14T02:55:16;2.93;85.99
69543;SHT31;56762;49.494;11.768;2022-11-14T02:57:44;2.91;86.21
69543;SHT31;56762;49.494;11.768;2022-11-14T03:00:12;2.93;86.96
69543;SHT31;56762;49.494;11.768;2022-11-14T03:02:41;2.96;86.59
69543;SHT31;56762;49.494;11.768;2022-11-14T03:05:09;2.97;86.31
69543;SHT31;56762;49.494;11.768;2022-11-14T03:07:36;2.99;86.60
69543;SHT31;56762;49.494;11.768;2022-11-14T03:10:06;2.94;86.41
69543;SHT31;56762;49.494;11.768;2022-11-14T03:12:35;2.96;86.70
69543;SHT31;56762;49.494;11.768;2022-11-14T03:15:03;2.94;86.46
69543;SHT31;56762;49.494;11.768;2022-11-14T03:17:31;2.91;86.18
69543;SHT31;56762;49.494;11.768;2022-11-14T03:19:59;2.94;86.08
69543;SHT31;56762;49.494;11.768;2022-11-14T03:22:28;2.86;86.19
69543;SHT31;56762;49.494;11.768;2022-11-14T03:24:55;2.89;86.20
69543;SHT31;56762;49.494;11.768;2022-11-14T03:27:24;2.84;86.18
69543;SHT31;56762;49.494;11.768;2022-11-14T03:29:52;2.79;85.77
69543;SHT31;56762;49.494;11.768;2022-11-14T03:35:01;2.76;85.88
69543;SHT31;56762;49.494;11.768;2022-11-14T03:37:29;2.79;85.33
69543;SHT31;56762;49.494;11.768;2022-11-14T03:39:57;2.70;85.64
69543;SHT31;56762;49.494;11.768;2022-11-14T03:42:27;2.67;86.21
69543;SHT31;56762;49.494;11.768;2022-11-14T03:44:54;2.69;85.86
69543;SHT31;56762;49.494;11.768;2022-11-14T03:47:22;2.70;85.58
69543;SHT31;56762;49.494;11.768;2022-11-14T03:49:50;2.60;85.90
69543;SHT31;56762;49.494;11.768;2022-11-14T03:52:18;2.57;86.25
69543;SHT31;56762;49.494;11.768;2022-11-14T03:54:45;2.59;86.11
69543;SHT31;56762;49.494;11.768;2022-11-14T03:57:13;2.57;85.83
69543;SHT31;56762;49.494;11.768;2022-11-14T03:59:42;2.54;86.20
69543;SHT31;56762;49.494;11.768;2022-11-14T04:02:10;2.56;85.93
69543;SHT31;56762;49.494;11.768;2022-11-14T04:04:38;2.63;86.30
69543;SHT31;56762;49.494;11.768;2022-11-14T04:07:05;2.63;85.88
69543;SHT31;56762;49.494;11.768;2022-11-14T04:09:33;2.59;86.21
69543;SHT31;56762;49.494;11.768;2022-11-14T04:12:01;2.59;86.47
69543;SHT31;56762;49.494;11.768;2022-11-14T04:14:29;2.63;86.18
69543;SHT31;56762;49.494;11.768;2022-11-14T04:16:58;2.64;85.47
69543;SHT31;56762;49.494;11.768;2022-11-14T04:19:26;2.61;85.50
69543;SHT31;56762;49.494;11.768;2022-11-14T04:21:53;2.59;85.08
69543;SHT31;56762;49.494;11.768;2022-11-14T04:24:21;2.57;85.61
69543;SHT31;56762;49.494;11.768;2022-11-14T04:26:49;2.53;86.38
69543;SHT31;56762;49.494;11.768;2022-11-14T04:29:17;2.54;86.58
69543;SHT31;56762;49.494;11.768;2022-11-14T04:31:45;2.50;86.68
69543;SHT31;56762;49.494;11.768;2022-11-14T04:34:15;2.49;86.79
69543;SHT31;56762;49.494;11.768;2022-11-14T04:36:43;2.54;86.72
69543;SHT31;56762;49.494;11.768;2022-11-14T04:39:11;2.52;86.29
69543;SHT31;56762;49.494;11.768;2022-11-14T04:41:39;2.52;86.21
69543;SHT31;56762;49.494;11.768;2022-11-14T04:44:07;2.52;86.51
69543;SHT31;56762;49.494;11.768;2022-11-14T04:46:34;2.54;86.59
69543;SHT31;56762;49.494;11.768;2022-11-14T04:49:02;2.54;86.72
69543;SHT31;56762;49.494;11.768;2022-11-14T04:51:31;2.54;86.05
69543;SHT31;56762;49.494;11.768;2022-11-14T04:53:59;2.59;85.31
69543;SHT31;56762;49.494;11.768;2022-11-14T04:56:27;2.59;84.89
69543;SHT31;56762;49.494;11.768;2022-11-14T04:58:55;2.52;85.37
69543;SHT31;56762;49.494;11.768;2022-11-14T05:01:22;2.50;85.51
69543;SHT31;56762;49.494;11.768;2022-11-14T05:03:50;2.59;85.07
69543;SHT31;56762;49.494;11.768;2022-11-14T05:06:18;2.54;85.07
69543;SHT31;56762;49.494;11.768;2022-11-14T05:08:47;2.56;85.54
69543;SHT31;56762;49.494;11.768;2022-11-14T05:11:17;2.53;85.76
69543;SHT31;56762;49.494;11.768;2022-11-14T05:13:45;2.54;85.87
69543;SHT31;56762;49.494;11.768;2022-11-14T05:16:13;2.54;85.78
69543;SHT31;56762;49.494;11.768;2022-11-14T05:18:41;2.57;85.66
69543;SHT31;56762;49.494;11.768;2022-11-14T05:21:13;2.59;84.96
69543;SHT31;56762;49.494;11.768;2022-11-14T05:23:43;2.59;84.99
69543;SHT31;56762;49.494;11.768;2022-11-14T05:26:15;2.53;84.84
69543;SHT31;56762;49.494;11.768;2022-11-14T05:28:43;2.50;85.20
69543;SHT31;56762;49.494;11.768;2022-11-14T05:31:12;2.43;86.00
69543;SHT31;56762;49.494;11.768;2022-11-14T05:33:44;2.46;85.66
69543;SHT31;56762;49.494;11.768;2022-11-14T05:36:13;2.43;85.75
69543;SHT31;56762;49.494;11.768;2022-11-14T05:38:42;2.39;86.17
69543;SHT31;56762;49.494;11.768;2022-11-14T05:41:13;2.39;85.99
69543;SHT31;56762;49.494;11.768;2022-11-14T05:43:41;2.38;85.54
69543;SHT31;56762;49.494;11.768;2022-11-14T05:46:10;2.29;86.05
69543;SHT31;56762;49.494;11.768;2022-11-14T05:48:39;2.25;86.00
69543;SHT31;56762;49.494;11.768;2022-11-14T05:51:09;2.25;86.18
69543;SHT31;56762;49.494;11.768;2022-11-14T05:53:38;2.24;85.79
69543;SHT31;56762;49.494;11.768;2022-11-14T05:56:09;2.19;85.98
69543;SHT31;56762;49.494;11.768;2022-11-14T05:58:39;2.22;85.85
69543;SHT31;56762;49.494;11.768;2022-11-14T06:01:13;2.26;85.89
69543;SHT31;56762;49.494;11.768;2022-11-14T06:03:44;2.24;85.78
69543;SHT31;56762;49.494;11.768;2022-11-14T06:06:14;2.19;85.65
69543;SHT31;56762;49.494;11.768;2022-11-14T06:08:43;2.14;85.78
69543;SHT31;56762;49.494;11.768;2022-11-14T06:11:13;2.12;86.88
69543;SHT31;56762;49.494;11.768;2022-11-14T06:13:42;2.09;87.03
69543;SHT31;56762;49.494;11.768;2022-11-14T06:16:12;2.15;86.12
69543;SHT31;56762;49.494;11.768;2022-11-14T06:18:40;2.14;85.97
69543;SHT31;56762;49.494;11.768;2022-11-14T06:21:10;2.11;85.75
69543;SHT31;56762;49.494;11.768;2022-11-14T06:23:39;2.12;85.81
69543;SHT31;56762;49.494;11.768;2022-11-14T06:26:11;2.11;86.13
69543;SHT31;56762;49.494;11.768;2022-11-14T06:28:42;2.11;86.19
69543;SHT31;56762;49.494;11.768;2022-11-14T06:31:10;2.14;85.81
69543;SHT31;56762;49.494;11.768;2022-11-14T06:33:38;2.15;86.18
69543;SHT31;56762;49.494;11.768;2022-11-14T06:36:07;2.24;85.94
69543;SHT31;56762;49.494;11.768;2022-11-14T06:38:37;2.19;85.80
69543;SHT31;56762;49.494;11.768;2022-11-14T06:41:07;2.19;85.59
69543;SHT31;56762;49.494;11.768;2022-11-14T06:43:37;2.21;85.53
69543;SHT31;56762;49.494;11.768;2022-11-14T06:46:07;2.30;85.90
69543;SHT31;56762;49.494;11.768;2022-11-14T06:48:36;2.26;86.21
69543;SHT31;56762;49.494;11.768;2022-11-14T06:51:05;2.30;85.51
69543;SHT31;56762;49.494;11.768;2022-11-14T06:53:34;2.33;85.53
69543;SHT31;56762;49.494;11.768;2022-11-14T06:56:04;2.39;85.49
69543;SHT31;56762;49.494;11.768;2022-11-14T06:58:34;2.46;85.42
69543;SHT31;56762;49.494;11.768;2022-11-14T07:01:07;2.52;85.59
69543;SHT31;56762;49.494;11.768;2022-11-14T07:03:35;2.53;85.48
69543;SHT31;56762;49.494;11.768;2022-11-14T07:06:04;2.54;85.85
69543;SHT31;56762;49.494;11.768;2022-11-14T07:08:32;2.63;85.90
69543;SHT31;56762;49.494;11.768;2022-11-14T07:11:02;2.57;86.47
69543;SHT31;56762;49.494;11.768;2022-11-14T07:13:32;2.61;86.55
69543;SHT31;56762;49.494;11.768;2022-11-14T07:16:01;2.67;86.49
69543;SHT31;56762;49.494;11.768;2022-11-14T07:18:31;2.67;86.51
69543;SHT31;56762;49.494;11.768;2022-11-14T07:21:01;2.70;86.65
69543;SHT31;56762;49.494;11.768;2022-11-14T07:23:29;2.75;86.05
69543;SHT31;56762;49.494;11.768;2022-11-14T07:25:59;2.81;85.44
69543;SHT31;56762;49.494;11.768;2022-11-14T07:28:28;2.80;85.45
69543;SHT31;56762;49.494;11.768;2022-11-14T07:30:56;2.83;85.19
69543;SHT31;56762;49.494;11.768;2022-11-14T07:33:24;2.81;84.89
69543;SHT31;56762;49.494;11.768;2022-11-14T07:35:57;2.77;85.45
69543;SHT31;56762;49.494;11.768;2022-11-14T07:38:29;2.84;85.75
69543;SHT31;56762;49.494;11.768;2022-11-14T07:40:59;2.86;85.64
69543;SHT31;56762;49.494;11.768;2022-11-14T07:43:27;2.93;85.68
69543;SHT31;56762;49.494;11.768;2022-11-14T07:45:58;3.03;85.19
69543;SHT31;56762;49.494;11.768;2022-11-14T07:48:26;3.07;85.23
69543;SHT31;56762;49.494;11.768;2022-11-14T07:50:58;3.10;84.59
69543;SHT31;56762;49.494;11.768;2022-11-14T07:53:27;3.15;84.79
69543;SHT31;56762;49.494;11.768;2022-11-14T07:55:56;3.14;84.71
69543;SHT31;56762;49.494;11.768;2022-11-14T07:58:24;3.18;85.08
69543;SHT31;56762;49.494;11.768;2022-11-14T08:00:51;3.22;85.22
69543;SHT31;56762;49.494;11.768;2022-11-14T08:03:20;3.31;85.58
69543;SHT31;56762;49.494;11.768;2022-11-14T08:05:47;3.39;85.76
69543;SHT31;56762;49.494;11.768;2022-11-14T08:08:17;3.45;86.11
69543;SHT31;56762;49.494;11.768;2022-11-14T08:11:03;3.56;86.33
69543;SHT31;56762;49.494;11.768;2022-11-14T08:13:33;3.68;86.34
69543;SHT31;56762;49.494;11.768;2022-11-14T08:16:03;3.75;86.69
69543;SHT31;56762;49.494;11.768;2022-11-14T08:18:39;3.80;86.74
69543;SHT31;56762;49.494;11.768;2022-11-14T08:21:07;3.86;86.75
69543;SHT31;56762;49.494;11.768;2022-11-14T08:23:36;3.96;86.62
69543;SHT31;56762;49.494;11.768;2022-11-14T08:26:04;4.04;86.28
69543;SHT31;56762;49.494;11.768;2022-11-14T08:28:32;4.01;85.43
69543;SHT31;56762;49.494;11.768;2022-11-14T08:31:01;4.00;85.32
69543;SHT31;56762;49.494;11.768;2022-11-14T08:33:29;4.06;85.42
69543;SHT31;56762;49.494;11.768;2022-11-14T08:35:59;4.16;85.25
69543;SHT31;56762;49.494;11.768;2022-11-14T08:38:29;4.17;85.74
69543;SHT31;56762;49.494;11.768;2022-11-14T08:41:00;4.30;85.58
69543;SHT31;56762;49.494;11.768;2022-11-14T08:43:29;4.40;85.74
69543;SHT31;56762;49.494;11.768;2022-11-14T08:45:57;4.45;86.11
69543;SHT31;56762;49.494;11.768;2022-11-14T08:48:28;4.54;86.03
69543;SHT31;56762;49.494;11.768;2022-11-14T08:51:00;4.62;85.94
69543;SHT31;56762;49.494;11.768;2022-11-14T08:53:28;4.71;86.13
69543;SHT31;56762;49.494;11.768;2022-11-14T08:55:57;4.81;85.63
69543;SHT31;56762;49.494;11.768;2022-11-14T08:58:28;4.89;86.11
69543;SHT31;56762;49.494;11.768;2022-11-14T09:01:01;4.89;86.66
69543;SHT31;56762;49.494;11.768;2022-11-14T09:03:30;4.99;86.79
69543;SHT31;56762;49.494;11.768;2022-11-14T09:05:58;5.09;86.93
69543;SHT31;56762;49.494;11.768;2022-11-14T09:08:26;5.18;87.38
69543;SHT31;56762;49.494;11.768;2022-11-14T09:11:00;5.26;87.02
69543;SHT31;56762;49.494;11.768;2022-11-14T09:13:35;5.33;87.09
69543;SHT31;56762;49.494;11.768;2022-11-14T09:16:04;5.44;86.70
69543;SHT31;56762;49.494;11.768;2022-11-14T09:18:32;5.55;86.73
69543;SHT31;56762;49.494;11.768;2022-11-14T09:21:00;5.61;86.83
69543;SHT31;56762;49.494;11.768;2022-11-14T09:23:28;5.68;87.07
69543;SHT31;56762;49.494;11.768;2022-11-14T09:25:57;5.73;87.14
69543;SHT31;56762;49.494;11.768;2022-11-14T09:28:25;5.87;86.90
69543;SHT31;56762;49.494;11.768;2022-11-14T09:31:00;5.97;86.94
69543;SHT31;56762;49.494;11.768;2022-11-14T09:33:29;6.06;86.70
69543;SHT31;56762;49.494;11.768;2022-11-14T09:35:57;6.18;86.53
69543;SHT31;56762;49.494;11.768;2022-11-14T09:38:26;6.23;86.31
69543;SHT31;56762;49.494;11.768;2022-11-14T09:41:14;6.37;86.09
69543;SHT31;56762;49.494;11.768;2022-11-14T09:44:03;6.47;86.05
69543;SHT31;56762;49.494;11.768;2022-11-14T09:46:38;6.56;85.98
69543;SHT31;56762;49.494;11.768;2022-11-14T09:49:10;6.64;86.36
69543;SHT31;56762;49.494;11.768;2022-11-14T09:51:45;6.73;85.92
69543;SHT31;56762;49.494;11.768;2022-11-14T09:54:19;6.83;86.16
69543;SHT31;56762;49.494;11.768;2022-11-14T09:56:48;6.94;85.86
69543;SHT31;56762;49.494;11.768;2022-11-14T09:59:16;7.01;85.89
69543;SHT31;56762;49.494;11.768;2022-11-14T10:01:50;7.08;85.65
69543;SHT31;56762;49.494;11.768;2022-11-14T10:04:30;7.21;85.32
69543;SHT31;56762;49.494;11.768;2022-11-14T10:07:04;7.28;85.27
69543;SHT31;56762;49.494;11.768;2022-11-14T10:09:47;7.38;84.77
69543;SHT31;56762;49.494;11.768;2022-11-14T10:12:21;7.51;84.50
69543;SHT31;56762;49.494;11.768;2022-11-14T10:15:03;7.58;85.00
69543;SHT31;56762;49.494;11.768;2022-11-14T10:17:58;7.77;83.58
69543;SHT31;56762;49.494;11.768;2022-11-14T10:20:32;7.87;82.86
69543;SHT31;56762;49.494;11.768;2022-11-14T10:23:14;7.98;82.07
69543;SHT31;56762;49.494;11.768;2022-11-14T10:25:53;8.04;82.50
69543;SHT31;56762;49.494;11.768;2022-11-14T10:28:37;8.07;81.78
69543;SHT31;56762;49.494;11.768;2022-11-14T10:34:55;8.23;81.09
69543;SHT31;56762;49.494;11.768;2022-11-14T10:37:29;8.24;81.37
69543;SHT31;56762;49.494;11.768;2022-11-14T10:40:03;8.28;81.33
69543;SHT31;56762;49.494;11.768;2022-11-14T10:42:43;8.37;81.28
69543;SHT31;56762;49.494;11.768;2022-11-14T10:45:20;8.40;80.94
69543;SHT31;56762;49.494;11.768;2022-11-14T10:47:52;8.52;80.71
69543;SHT31;56762;49.494;11.768;2022-11-14T10:50:25;8.55;80.82
69543;SHT31;56762;49.494;11.768;2022-11-14T10:52:59;8.58;80.82
69543;SHT31;56762;49.494;11.768;2022-11-14T10:55:27;8.62;80.31
69543;SHT31;56762;49.494;11.768;2022-11-14T10:58:15;8.65;80.96
69543;SHT31;56762;49.494;11.768;2022-11-14T11:00:43;8.69;80.16
69543;SHT31;56762;49.494;11.768;2022-11-14T11:03:11;8.72;80.19
69543;SHT31;56762;49.494;11.768;2022-11-14T11:05:49;8.79;80.27
69543;SHT31;56762;49.494;11.768;2022-11-14T11:08:19;8.82;80.40
69543;SHT31;56762;49.494;11.768;2022-11-14T11:11:11;8.90;80.48
69543;SHT31;56762;49.494;11.768;2022-11-14T11:13:59;8.93;79.89
69543;SHT31;56762;49.494;11.768;2022-11-14T11:16:28;8.99;80.03
69543;SHT31;56762;49.494;11.768;2022-11-14T11:19:13;8.99;80.10
69543;SHT31;56762;49.494;11.768;2022-11-14T11:21:50;9.03;80.18
69543;SHT31;56762;49.494;11.768;2022-11-14T11:24:30;9.09;80.01
69543;SHT31;56762;49.494;11.768;2022-11-14T11:27:12;9.12;79.60
69543;SHT31;56762;49.494;11.768;2022-11-14T11:29:41;9.16;79.63
69543;SHT31;56762;49.494;11.768;2022-11-14T11:32:08;9.16;79.64
69543;SHT31;56762;49.494;11.768;2022-11-14T11:34:37;9.22;79.75
69543;SHT31;56762;49.494;11.768;2022-11-14T11:37:14;9.26;79.77
69543;SHT31;56762;49.494;11.768;2022-11-14T11:39:48;9.28;80.09
69543;SHT31;56762;49.494;11.768;2022-11-14T11:42:20;9.34;79.28
69543;SHT31;56762;49.494;11.768;2022-11-14T11:44:53;9.38;79.37
69543;SHT31;56762;49.494;11.768;2022-11-14T11:47:24;9.44;79.28
69543;SHT31;56762;49.494;11.768;2022-11-14T11:49:52;9.50;79.54
69543;SHT31;56762;49.494;11.768;2022-11-14T11:52:30;9.52;79.57
69543;SHT31;56762;49.494;11.768;2022-11-14T11:55:04;9.59;79.69
69543;SHT31;56762;49.494;11.768;2022-11-14T11:57:41;9.64;79.58
69543;SHT31;56762;49.494;11.768;2022-11-14T12:00:14;9.67;79.42
69543;SHT31;56762;49.494;11.768;2022-11-14T12:02:45;9.73;79.60
69543;SHT31;56762;49.494;11.768;2022-11-14T12:05:16;9.75;78.80
69543;SHT31;56762;49.494;11.768;2022-11-14T12:07:54;9.79;78.24
69543;SHT31;56762;49.494;11.768;2022-11-14T12:10:26;9.85;78.00
69543;SHT31;56762;49.494;11.768;2022-11-14T12:16:05;9.88;78.38
69543;SHT31;56762;49.494;11.768;2022-11-14T12:19:15;9.91;77.95
69543;SHT31;56762;49.494;11.768;2022-11-14T12:22:25;9.99;77.87
69543;SHT31;56762;49.494;11.768;2022-11-14T12:25:32;10.06;77.99
69543;SHT31;56762;49.494;11.768;2022-11-14T12:28:12;10.15;77.54
69543;SHT31;56762;49.494;11.768;2022-11-14T12:30:46;10.19;77.92
69543;SHT31;56762;49.494;11.768;2022-11-14T12:33:20;10.20;77.77
69543;SHT31;56762;49.494;11.768;2022-11-14T12:35:52;10.16;77.95
69543;SHT31;56762;49.494;11.768;2022-11-14T12:38:22;10.16;78.24
69543;SHT31;56762;49.494;11.768;2022-11-14T12:40:53;10.18;78.17
69543;SHT31;56762;49.494;11.768;2022-11-14T12:43:33;10.15;78.19
69543;SHT31;56762;49.494;11.768;2022-11-14T12:46:04;10.20;77.78
69543;SHT31;56762;49.494;11.768;2022-11-14T12:48:36;10.22;77.90
69543;SHT31;56762;49.494;11.768;2022-11-14T12:54:40;10.30;77.37
69543;SHT31;56762;49.494;11.768;2022-11-14T12:57:15;10.33;77.43
69543;SHT31;56762;49.494;11.768;2022-11-14T13:00:07;10.40;77.30
69543;SHT31;56762;49.494;11.768;2022-11-14T13:05:50;10.53;76.90
69543;SHT31;56762;49.494;11.768;2022-11-14T13:08:38;10.57;75.87
69543;SHT31;56762;49.494;11.768;2022-11-14T13:11:38;10.61;75.55
69543;SHT31;56762;49.494;11.768;2022-11-14T13:14:25;10.67;75.15
69543;SHT31;56762;49.494;11.768;2022-11-14T13:17:23;10.71;75.04
69543;SHT31;56762;49.494;11.768;2022-11-14T13:20:25;10.67;75.30
69543;SHT31;56762;49.494;11.768;2022-11-14T13:26:40;10.60;75.12
69543;SHT31;56762;49.494;11.768;2022-11-14T13:35:51;10.59;73.46
69543;SHT31;56762;49.494;11.768;2022-11-14T13:39:14;10.63;73.05
69543;SHT31;56762;49.494;11.768;2022-11-14T13:50:38;10.81;71.88
69543;SHT31;56762;49.494;11.768;2022-11-14T13:53:11;10.81;71.74
69543;SHT31;56762;49.494;11.768;2022-11-14T13:56:00;10.76;71.42
69543;SHT31;56762;49.494;11.768;2022-11-14T13:58:55;10.70;72.75
69543;SHT31;56762;49.494;11.768;2022-11-14T14:01:39;10.66;72.48
69543;SHT31;56762;49.494;11.768;2022-11-14T14:04:22;10.71;71.98
69543;SHT31;56762;49.494;11.768;2022-11-14T14:07:06;10.68;72.00
69543;SHT31;56762;49.494;11.768;2022-11-14T14:09:47;10.63;73.45
69543;SHT31;56762;49.494;11.768;2022-11-14T14:15:21;10.59;72.88
69543;SHT31;56762;49.494;11.768;2022-11-14T14:17:59;10.57;72.71
69543;SHT31;56762;49.494;11.768;2022-11-14T14:20:38;10.55;72.97
69543;SHT31;56762;49.494;11.768;2022-11-14T14:23:19;10.49;73.11
69543;SHT31;56762;49.494;11.768;2022-11-14T14:25:55;10.46;73.10
69543;SHT31;56762;49.494;11.768;2022-11-14T14:28:32;10.40;73.50
69543;SHT31;56762;49.494;11.768;2022-11-14T14:31:10;10.35;73.98
69543;SHT31;56762;49.494;11.768;2022-11-14T14:33:39;10.30;74.02
69543;SHT31;56762;49.494;11.768;2022-11-14T14:36:23;10.26;73.71
69543;SHT31;56762;49.494;11.768;2022-11-14T14:39:14;10.20;74.40
69543;SHT31;56762;49.494;11.768;2022-11-14T14:41:43;10.16;74.53
69543;SHT31;56762;49.494;11.768;2022-11-14T14:44:19;10.12;75.73
69543;SHT31;56762;49.494;11.768;2022-11-14T14:46:49;10.01;76.13
69543;SHT31;56762;49.494;11.768;2022-11-14T14:49:20;9.95;75.84
69543;SHT31;56762;49.494;11.768;2022-11-14T14:51:48;9.89;75.77
69543;SHT31;56762;49.494;11.768;2022-11-14T14:54:26;9.88;76.57
69543;SHT31;56762;49.494;11.768;2022-11-14T14:56:56;9.84;76.29
69543;SHT31;56762;49.494;11.768;2022-11-14T14:59:27;9.78;76.89
69543;SHT31;56762;49.494;11.768;2022-11-14T15:01:55;9.73;77.87
69543;SHT31;56762;49.494;11.768;2022-11-14T15:04:26;9.71;77.34
69543;SHT31;56762;49.494;11.768;2022-11-14T15:06:55;9.67;77.38
69543;SHT31;56762;49.494;11.768;2022-11-14T15:09:27;9.62;77.17
69543;SHT31;56762;49.494;11.768;2022-11-14T15:11:58;9.58;77.22
69543;SHT31;56762;49.494;11.768;2022-11-14T15:14:30;9.51;78.32
69543;SHT31;56762;49.494;11.768;2022-11-14T15:16:59;9.46;78.88
69543;SHT31;56762;49.494;11.768;2022-11-14T15:19:32;9.36;79.79
69543;SHT31;56762;49.494;11.768;2022-11-14T15:22:18;9.30;79.57
69543;SHT31;56762;49.494;11.768;2022-11-14T15:25:14;9.23;79.92
69543;SHT31;56762;49.494;11.768;2022-11-14T15:27:46;9.17;80.90
69543;SHT31;56762;49.494;11.768;2022-11-14T15:30:22;9.13;80.13
69543;SHT31;56762;49.494;11.768;2022-11-14T15:32:52;9.07;80.45
69543;SHT31;56762;49.494;11.768;2022-11-14T15:35:30;9.00;80.29
69543;SHT31;56762;49.494;11.768;2022-11-14T15:37:59;9.00;80.07
69543;SHT31;56762;49.494;11.768;2022-11-14T15:41:15;8.93;80.03
69543;SHT31;56762;49.494;11.768;2022-11-14T15:43:48;8.90;81.22
69543;SHT31;56762;49.494;11.768;2022-11-14T15:46:28;8.83;81.11
69543;SHT31;56762;49.494;11.768;2022-11-14T15:48:59;8.76;81.53
69543;SHT31;56762;49.494;11.768;2022-11-14T15:51:41;8.71;81.51
69543;SHT31;56762;49.494;11.768;2022-11-14T15:54:24;8.68;82.15
69543;SHT31;56762;49.494;11.768;2022-11-14T15:56:55;8.65;81.87
69543;SHT31;56762;49.494;11.768;2022-11-14T15:59:24;8.65;82.02
69543;SHT31;56762;49.494;11.768;2022-11-14T16:01:58;8.65;81.97
69543;SHT31;56762;49.494;11.768;2022-11-14T16:04:29;8.65;82.06
69543;SHT31;56762;49.494;11.768;2022-11-14T16:06:58;8.62;82.23
69543;SHT31;56762;49.494;11.768;2022-11-14T16:09:27;8.58;82.47
69543;SHT31;56762;49.494;11.768;2022-11-14T16:11:56;8.56;82.05
69543;SHT31;56762;49.494;11.768;2022-11-14T16:14:26;8.55;82.62
69543;SHT31;56762;49.494;11.768;2022-11-14T16:16:54;8.55;83.02
69543;SHT31;56762;49.494;11.768;2022-11-14T16:19:21;8.51;82.80
69543;SHT31;56762;49.494;11.768;2022-11-14T16:21:49;8.49;82.70
69543;SHT31;56762;49.494;11.768;2022-11-14T16:24:18;8.49;83.62
69543;SHT31;56762;49.494;11.768;2022-11-14T16:26:47;8.49;82.87
69543;SHT31;56762;49.494;11.768;2022-11-14T16:29:16;8.51;83.53
69543;SHT31;56762;49.494;11.768;2022-11-14T16:31:44;8.54;83.23
69543;SHT31;56762;49.494;11.768;2022-11-14T16:34:15;8.54;83.34
69543;SHT31;56762;49.494;11.768;2022-11-14T16:36:44;8.55;83.39
69543;SHT31;56762;49.494;11.768;2022-11-14T16:39:14;8.52;83.21